createdAt,value
2022-10-20T00:00:20.835Z,14.00
2022-10-20T00:01:20.733Z,13.80
2022-10-20T00:02:20.790Z,15.00
2022-10-20T00:03:20.707Z,14.30
2022-10-20T00:04:20.761Z,13.90
2022-10-20T00:05:20.702Z,13.90
2022-10-20T00:06:20.724Z,13.40
2022-10-20T00:07:20.669Z,14.50
2022-10-20T00:08:20.660Z,13.90
2022-10-20T00:09:20.682Z,14.10
2022-10-20T00:10:20.633Z,14.10
2022-10-20T00:11:20.663Z,13.50
2022-10-20T00:12:20.623Z,15.40
2022-10-20T00:13:20.590Z,14.40
2022-10-20T00:14:20.601Z,12.80
2022-10-20T00:15:20.574Z,12.80
2022-10-20T00:16:20.582Z,12.70
2022-10-20T00:17:20.541Z,12.80
2022-10-20T00:18:20.530Z,14.60
2022-10-20T00:19:20.562Z,11.50
2022-10-20T00:20:20.524Z,14.50
2022-10-20T00:21:20.537Z,14.20
2022-10-20T00:22:20.485Z,13.90
2022-10-20T00:23:20.486Z,12.60
2022-10-20T00:24:20.474Z,12.10
2022-10-20T00:25:20.457Z,14.40
2022-10-20T00:26:20.498Z,12.90
2022-10-20T00:27:20.463Z,12.70
2022-10-20T00:28:20.407Z,13.10
2022-10-20T00:29:20.425Z,14.30
2022-10-20T00:30:22.496Z,13.30
2022-10-20T00:31:20.364Z,13.80
2022-10-20T00:32:20.427Z,11.90
2022-10-20T00:33:20.368Z,13.10
2022-10-20T00:34:20.369Z,15.60
2022-10-20T00:35:20.333Z,13.80
2022-10-20T00:36:20.329Z,14.70
2022-10-20T00:37:20.358Z,14.00
2022-10-20T00:38:20.287Z,18.90
2022-10-20T00:39:20.309Z,14.70
2022-10-20T00:40:20.280Z,14.50
2022-10-20T00:41:20.246Z,16.60
2022-10-20T00:42:20.273Z,14.70
2022-10-20T00:43:20.268Z,15.60
2022-10-20T00:44:20.252Z,17.60
2022-10-20T00:45:20.225Z,15.40
2022-10-20T00:46:20.188Z,13.70
2022-10-20T00:47:20.191Z,14.00
2022-10-20T00:48:20.167Z,12.40
2022-10-20T00:49:20.231Z,14.30
2022-10-20T00:50:20.155Z,15.00
2022-10-20T00:51:20.153Z,17.30
2022-10-20T00:52:20.142Z,12.50
2022-10-20T00:53:20.130Z,14.30
2022-10-20T00:54:20.118Z,15.30
2022-10-20T00:55:20.128Z,12.60
2022-10-20T00:56:20.069Z,13.40
2022-10-20T00:57:20.082Z,13.70
2022-10-20T00:58:20.060Z,13.80
2022-10-20T00:59:20.153Z,14.60
2022-10-20T01:00:20.021Z,13.50
2022-10-20T01:01:20.077Z,13.10
2022-10-20T01:02:20.003Z,11.90
2022-10-20T01:03:20.012Z,13.70
2022-10-20T01:04:19.990Z,12.50
2022-10-20T01:05:20.044Z,15.30
2022-10-20T01:06:19.965Z,13.40
2022-10-20T01:07:19.942Z,13.20
2022-10-20T01:08:19.932Z,14.60
2022-10-20T01:09:19.956Z,12.10
2022-10-20T01:10:19.908Z,12.60
2022-10-20T01:11:19.995Z,12.50
2022-10-20T01:12:19.884Z,14.50
2022-10-20T01:13:19.888Z,12.60
2022-10-20T01:14:19.886Z,13.10
2022-10-20T01:15:19.911Z,13.00
2022-10-20T01:16:19.834Z,12.70
2022-10-20T01:17:19.878Z,12.10
2022-10-20T01:18:19.828Z,15.40
2022-10-20T01:19:19.825Z,13.60
2022-10-20T01:20:19.817Z,13.50
2022-10-20T01:21:19.797Z,13.10
2022-10-20T01:22:19.789Z,16.40
2022-10-20T01:23:19.799Z,13.50
2022-10-20T01:24:19.817Z,17.70
2022-10-20T01:25:19.733Z,12.90
2022-10-20T01:26:19.756Z,14.00
2022-10-20T01:27:19.709Z,13.80
2022-10-20T01:28:19.699Z,13.10
2022-10-20T01:29:19.720Z,11.80
2022-10-20T01:30:19.709Z,11.10
2022-10-20T01:31:19.697Z,12.20
2022-10-20T01:32:19.652Z,11.70
2022-10-20T01:33:19.682Z,12.80
2022-10-20T01:34:19.617Z,12.80
2022-10-20T01:35:19.654Z,13.90
2022-10-20T01:36:19.657Z,12.30
2022-10-20T01:37:28.392Z,13.40
2022-10-20T01:38:20.568Z,14.10
2022-10-20T01:39:19.558Z,13.10
2022-10-20T01:40:19.572Z,13.60
2022-10-20T01:41:19.565Z,11.00
2022-10-20T01:42:19.582Z,14.80
2022-10-20T01:43:19.530Z,14.00
2022-10-20T01:44:19.541Z,12.40
2022-10-20T01:45:19.489Z,12.20
2022-10-20T01:46:19.499Z,12.50
2022-10-20T01:47:19.535Z,13.90
2022-10-20T01:48:19.472Z,13.60
2022-10-20T01:49:19.770Z,13.90
2022-10-20T01:50:19.430Z,13.80
2022-10-20T01:51:19.440Z,12.30
2022-10-20T01:52:19.442Z,15.70
2022-10-20T01:53:19.445Z,13.50
2022-10-20T01:54:19.411Z,13.80
2022-10-20T01:55:19.385Z,16.50
2022-10-20T01:56:19.359Z,14.00
2022-10-20T01:57:19.373Z,14.80
2022-10-20T01:58:19.342Z,11.70
2022-10-20T01:59:19.362Z,15.00
2022-10-20T02:00:19.324Z,13.90
2022-10-20T02:01:19.363Z,11.20
2022-10-20T02:02:19.314Z,12.40
2022-10-20T02:03:19.319Z,13.40
2022-10-20T02:04:19.277Z,12.80
2022-10-20T02:05:19.297Z,13.20
2022-10-20T02:06:19.247Z,12.90
2022-10-20T02:07:19.256Z,13.00
2022-10-20T02:08:19.228Z,12.40
2022-10-20T02:09:19.216Z,13.60
2022-10-20T02:10:19.258Z,12.50
2022-10-20T02:11:19.198Z,13.50
2022-10-20T02:12:19.201Z,14.30
2022-10-20T02:13:19.175Z,12.90
2022-10-20T02:14:19.179Z,12.20
2022-10-20T02:15:19.145Z,14.70
2022-10-20T02:16:19.146Z,13.40
2022-10-20T02:17:19.122Z,15.90
2022-10-20T02:18:19.120Z,13.80
2022-10-20T02:19:19.121Z,12.60
2022-10-20T02:20:19.081Z,14.00
2022-10-20T02:21:19.078Z,13.40
2022-10-20T02:22:19.090Z,14.00
2022-10-20T02:23:19.082Z,14.10
2022-10-20T02:24:19.061Z,14.50
2022-10-20T02:25:19.038Z,13.70
2022-10-20T02:26:19.022Z,10.80
2022-10-20T02:27:19.001Z,12.20
2022-10-20T02:28:19.001Z,11.80
2022-10-20T02:29:19.032Z,13.60
2022-10-20T02:30:18.992Z,12.10
2022-10-20T02:31:18.960Z,14.00
2022-10-20T02:32:18.929Z,12.10
2022-10-20T02:33:18.923Z,14.10
2022-10-20T02:34:18.950Z,13.10
2022-10-20T02:35:18.923Z,15.50
2022-10-20T02:36:18.925Z,12.10
2022-10-20T02:37:18.894Z,14.60
2022-10-20T02:38:18.873Z,12.70
2022-10-20T02:39:18.863Z,13.70
2022-10-20T02:40:18.874Z,14.30
2022-10-20T02:41:18.845Z,14.00
2022-10-20T02:42:18.868Z,14.10
2022-10-20T02:43:18.811Z,13.80
2022-10-20T02:44:18.814Z,13.70
2022-10-20T02:45:18.815Z,12.50
2022-10-20T02:46:18.775Z,13.30
2022-10-20T02:47:18.815Z,15.80
2022-10-20T02:48:18.773Z,13.60
2022-10-20T02:49:18.766Z,14.40
2022-10-20T02:50:18.736Z,15.00
2022-10-20T02:51:18.742Z,17.10
2022-10-20T02:52:18.732Z,15.20
2022-10-20T02:53:18.683Z,17.50
2022-10-20T02:54:18.673Z,16.20
2022-10-20T02:56:18.678Z,12.20
2022-10-20T02:57:18.667Z,13.10
2022-10-20T02:58:18.667Z,13.90
2022-10-20T02:59:18.627Z,12.70
2022-10-20T03:00:18.635Z,14.30
2022-10-20T03:01:18.650Z,12.50
2022-10-20T03:02:18.608Z,13.70
2022-10-20T03:03:18.574Z,13.90
2022-10-20T03:04:18.634Z,17.70
2022-10-20T03:05:18.589Z,14.50
2022-10-20T03:06:18.550Z,12.60
2022-10-20T03:07:18.538Z,12.50
2022-10-20T03:08:18.570Z,12.70
2022-10-20T03:09:18.541Z,11.50
2022-10-20T03:10:18.486Z,13.40
2022-10-20T03:11:18.537Z,12.70
2022-10-20T03:12:18.469Z,15.80
2022-10-20T03:13:18.542Z,13.90
2022-10-20T03:14:18.460Z,14.10
2022-10-20T03:15:18.427Z,14.30
2022-10-20T03:16:18.498Z,15.60
2022-10-20T03:17:18.439Z,13.50
2022-10-20T03:18:18.398Z,12.30
2022-10-20T03:19:18.410Z,14.30
2022-10-20T03:20:18.402Z,15.40
2022-10-20T03:21:18.410Z,12.40
2022-10-20T03:22:18.451Z,13.20
2022-10-20T03:23:20.090Z,12.20
2022-10-20T03:24:18.331Z,15.10
2022-10-20T03:25:18.339Z,12.50
2022-10-20T03:26:18.321Z,12.00
2022-10-20T03:27:18.324Z,15.50
2022-10-20T03:28:18.318Z,13.60
2022-10-20T03:29:18.270Z,12.70
2022-10-20T03:30:18.280Z,12.60
2022-10-20T03:31:18.250Z,11.20
2022-10-20T03:32:18.275Z,10.90
2022-10-20T03:33:18.252Z,13.40
2022-10-20T03:34:18.253Z,13.20
2022-10-20T03:35:18.222Z,13.90
2022-10-20T03:36:18.224Z,13.00
2022-10-20T03:37:18.195Z,13.60
2022-10-20T03:38:18.185Z,13.60
2022-10-20T03:39:18.215Z,13.40
2022-10-20T03:40:18.145Z,13.40
2022-10-20T03:41:18.134Z,12.80
2022-10-20T03:42:18.157Z,12.60
2022-10-20T03:43:18.136Z,12.20
2022-10-20T03:44:18.106Z,14.20
2022-10-20T03:45:18.704Z,14.20
2022-10-20T03:46:18.107Z,14.60
2022-10-20T03:47:18.063Z,14.20
2022-10-20T03:48:18.090Z,15.10
2022-10-20T03:49:18.075Z,14.90
2022-10-20T03:50:18.038Z,13.50
2022-10-20T03:51:18.036Z,13.70
2022-10-20T03:52:18.038Z,13.80
2022-10-20T03:53:18.030Z,13.00
2022-10-20T03:54:18.021Z,17.50
2022-10-20T03:55:17.995Z,17.40
2022-10-20T03:56:17.958Z,15.30
2022-10-20T03:57:17.977Z,15.20
2022-10-20T03:58:17.958Z,14.40
2022-10-20T03:59:17.950Z,13.20
2022-10-20T04:00:17.940Z,13.10
2022-10-20T04:01:17.965Z,13.40
2022-10-20T04:02:17.897Z,13.90
2022-10-20T04:03:17.897Z,11.00
2022-10-20T04:04:17.883Z,15.50
2022-10-20T04:05:17.898Z,15.10
2022-10-20T04:06:17.846Z,13.50
2022-10-20T04:07:17.881Z,12.30
2022-10-20T04:08:17.845Z,14.00
2022-10-20T04:09:17.810Z,14.20
2022-10-20T04:10:17.823Z,13.30
2022-10-20T04:11:17.835Z,14.80
2022-10-20T04:12:17.809Z,13.60
2022-10-20T04:13:17.769Z,12.60
2022-10-20T04:14:17.773Z,13.80
2022-10-20T04:15:17.739Z,15.30
2022-10-20T04:16:17.783Z,13.00
2022-10-20T04:17:17.734Z,13.00
2022-10-20T04:18:17.744Z,13.00
2022-10-20T04:19:17.715Z,12.50
2022-10-20T04:20:17.690Z,15.50
2022-10-20T04:21:17.680Z,13.20
2022-10-20T04:22:17.694Z,13.30
2022-10-20T04:23:17.671Z,12.10
2022-10-20T04:24:17.631Z,13.70
2022-10-20T04:25:17.633Z,12.40
2022-10-20T04:26:17.626Z,13.30
2022-10-20T04:27:17.633Z,14.60
2022-10-20T04:28:17.692Z,12.60
2022-10-20T04:29:17.630Z,16.00
2022-10-20T04:30:17.593Z,14.40
2022-10-20T04:31:17.577Z,13.70
2022-10-20T04:32:17.543Z,14.60
2022-10-20T04:33:17.553Z,11.50
2022-10-20T04:34:17.565Z,13.80
2022-10-20T04:35:17.554Z,13.40
2022-10-20T04:36:17.517Z,14.30
2022-10-20T04:37:17.494Z,13.30
2022-10-20T04:38:17.514Z,14.80
2022-10-20T04:39:17.507Z,11.40
2022-10-20T04:40:17.475Z,13.30
2022-10-20T04:41:17.434Z,13.10
2022-10-20T04:42:17.458Z,11.60
2022-10-20T04:43:17.426Z,12.90
2022-10-20T04:44:17.466Z,17.80
2022-10-20T04:45:17.395Z,14.70
2022-10-20T04:46:17.418Z,12.40
2022-10-20T04:47:17.389Z,12.40
2022-10-20T04:48:17.370Z,13.40
2022-10-20T04:49:17.397Z,14.20
2022-10-20T04:50:17.358Z,14.60
2022-10-20T04:51:17.345Z,15.20
2022-10-20T04:52:17.340Z,13.50
2022-10-20T04:53:17.318Z,13.80
2022-10-20T04:54:17.312Z,13.20
2022-10-20T04:55:17.322Z,15.10
2022-10-20T04:56:17.331Z,15.90
2022-10-20T04:57:17.271Z,14.30
2022-10-20T04:58:17.248Z,11.70
2022-10-20T04:59:17.253Z,16.60
2022-10-20T05:00:17.281Z,16.30
2022-10-20T05:01:17.235Z,13.20
2022-10-20T05:02:17.212Z,18.70
2022-10-20T05:03:17.215Z,75.20
2022-10-20T05:04:17.203Z,21.40
2022-10-20T05:05:17.183Z,17.60
2022-10-20T05:06:17.189Z,24.00
2022-10-20T05:07:17.174Z,16.20
2022-10-20T05:08:17.175Z,18.40
2022-10-20T05:09:17.160Z,20.40
2022-10-20T05:10:17.110Z,18.20
2022-10-20T05:11:17.164Z,19.00
2022-10-20T05:12:17.113Z,17.50
2022-10-20T05:13:17.097Z,22.40
2022-10-20T05:14:17.104Z,22.40
2022-10-20T05:15:17.104Z,27.20
2022-10-20T05:16:17.092Z,30.40
2022-10-20T05:17:17.035Z,23.00
2022-10-20T05:18:17.028Z,19.00
2022-10-20T05:19:17.015Z,32.20
2022-10-20T05:20:17.006Z,18.00
2022-10-20T05:21:17.002Z,28.20
2022-10-20T05:22:17.007Z,24.50
2022-10-20T05:23:16.975Z,21.20
2022-10-20T05:24:20.075Z,23.70
2022-10-20T05:25:35.519Z,22.40
2022-10-20T05:26:17.975Z,26.20
2022-10-20T05:27:16.937Z,64.70
2022-10-20T05:28:16.917Z,65.20
2022-10-20T05:29:16.885Z,31.70
2022-10-20T05:30:16.879Z,21.80
2022-10-20T05:31:16.887Z,29.40
2022-10-20T05:32:16.918Z,18.50
2022-10-20T05:33:16.845Z,18.50
2022-10-20T05:34:16.845Z,37.30
2022-10-20T05:35:16.889Z,19.30
2022-10-20T05:36:19.386Z,78.50
2022-10-20T05:37:16.855Z,24.00
2022-10-20T05:38:16.801Z,30.20
2022-10-20T05:39:16.945Z,25.60
2022-10-20T05:40:16.792Z,61.30
2022-10-20T05:41:16.778Z,45.20
2022-10-20T05:42:16.770Z,42.90
2022-10-20T05:43:17.462Z,14.80
2022-10-20T05:44:16.736Z,28.40
2022-10-20T05:45:16.738Z,59.80
2022-10-20T05:46:16.717Z,20.50
2022-10-20T05:47:16.697Z,32.10
2022-10-20T05:48:16.681Z,32.90
2022-10-20T05:49:16.716Z,46.40
2022-10-20T05:50:16.649Z,17.00
2022-10-20T05:51:16.696Z,20.50
2022-10-20T05:52:16.621Z,13.60
2022-10-20T05:53:16.642Z,17.00
2022-10-20T05:54:16.625Z,18.70
2022-10-20T05:55:16.614Z,22.90
2022-10-20T05:56:16.578Z,15.00
2022-10-20T05:57:16.590Z,14.40
2022-10-20T05:58:18.574Z,14.50
2022-10-20T05:59:17.563Z,16.40
2022-10-20T06:00:16.571Z,14.00
2022-10-20T06:01:16.595Z,14.30
2022-10-20T06:02:16.524Z,18.10
2022-10-20T06:03:17.523Z,21.80
2022-10-20T06:04:16.525Z,15.20
2022-10-20T06:05:16.501Z,17.80
2022-10-20T06:06:16.461Z,12.80
2022-10-20T06:07:16.445Z,11.40
2022-10-20T06:08:16.475Z,12.80
2022-10-20T06:09:16.438Z,11.30
2022-10-20T06:10:16.444Z,11.90
2022-10-20T06:11:16.504Z,13.00
2022-10-20T06:12:16.411Z,13.80
2022-10-20T06:13:16.413Z,17.80
2022-10-20T06:14:16.376Z,17.90
2022-10-20T06:15:16.364Z,14.40
2022-10-20T06:16:16.385Z,12.40
2022-10-20T06:17:16.373Z,15.10
2022-10-20T06:18:16.347Z,14.70
2022-10-20T06:19:16.304Z,17.00
2022-10-20T06:20:16.322Z,12.30
2022-10-20T06:21:16.306Z,13.10
2022-10-20T06:22:16.304Z,12.00
2022-10-20T06:23:16.255Z,13.90
2022-10-20T06:24:16.297Z,13.60
2022-10-20T06:25:16.257Z,13.10
2022-10-20T06:26:16.263Z,14.20
2022-10-20T06:27:16.249Z,12.10
2022-10-20T06:28:16.269Z,11.80
2022-10-20T06:29:16.208Z,13.60
2022-10-20T06:30:16.190Z,12.60
2022-10-20T06:31:16.168Z,11.40
2022-10-20T06:32:16.198Z,14.90
2022-10-20T06:33:16.146Z,10.50
2022-10-20T06:34:16.160Z,15.10
2022-10-20T06:35:16.139Z,15.10
2022-10-20T06:36:16.122Z,11.90
2022-10-20T06:37:16.113Z,14.20
2022-10-20T06:38:16.110Z,15.60
2022-10-20T06:39:16.133Z,11.10
2022-10-20T06:40:16.068Z,13.40
2022-10-20T06:41:16.069Z,14.50
2022-10-20T06:42:16.031Z,13.70
2022-10-20T06:43:16.052Z,13.50
2022-10-20T06:44:16.031Z,14.70
2022-10-20T06:45:17.149Z,12.80
2022-10-20T06:46:16.002Z,13.40
2022-10-20T06:47:15.983Z,13.00
2022-10-20T06:48:15.998Z,15.00
2022-10-20T06:49:15.963Z,15.50
2022-10-20T06:50:15.967Z,16.90
2022-10-20T06:51:16.000Z,16.70
2022-10-20T06:52:15.926Z,17.30
2022-10-20T06:53:15.929Z,13.70
2022-10-20T06:54:15.890Z,14.80
2022-10-20T06:55:15.881Z,14.30
2022-10-20T06:56:15.932Z,15.50
2022-10-20T06:57:15.865Z,15.70
2022-10-20T06:58:15.855Z,13.00
2022-10-20T06:59:15.852Z,16.60
2022-10-20T07:00:15.866Z,12.10
2022-10-20T07:01:15.916Z,12.40
2022-10-20T07:02:15.915Z,12.20
2022-10-20T07:03:15.823Z,12.90
2022-10-20T07:04:15.793Z,13.30
2022-10-20T07:05:15.778Z,12.10
2022-10-20T07:06:15.767Z,14.40
2022-10-20T07:07:15.767Z,12.70
2022-10-20T07:08:15.764Z,15.70
2022-10-20T07:09:15.734Z,14.70
2022-10-20T07:10:15.714Z,13.30
2022-10-20T07:11:15.683Z,14.80
2022-10-20T07:12:15.710Z,15.20
2022-10-20T07:13:15.657Z,13.90
2022-10-20T07:14:15.659Z,13.90
2022-10-20T07:15:15.670Z,16.50
2022-10-20T07:16:15.625Z,23.00
2022-10-20T07:17:15.681Z,25.20
2022-10-20T07:18:15.629Z,30.80
2022-10-20T07:19:15.615Z,17.60
2022-10-20T07:20:15.601Z,20.50
2022-10-20T07:21:15.577Z,15.70
2022-10-20T07:22:15.592Z,12.90
2022-10-20T07:23:15.570Z,12.10
2022-10-20T07:24:15.572Z,12.70
2022-10-20T07:25:15.508Z,19.30
2022-10-20T07:26:15.542Z,16.70
2022-10-20T07:27:15.508Z,13.60
2022-10-20T07:28:15.518Z,14.70
2022-10-20T07:29:15.501Z,15.60
2022-10-20T07:30:15.482Z,15.00
2022-10-20T07:31:15.473Z,13.60
2022-10-20T07:32:15.538Z,14.60
2022-10-20T07:33:15.458Z,15.30
2022-10-20T07:34:30.705Z,16.70
2022-10-20T07:35:16.419Z,16.00
2022-10-20T07:36:15.391Z,20.10
2022-10-20T07:37:15.384Z,15.00
2022-10-20T07:38:15.388Z,18.40
2022-10-20T07:39:15.404Z,16.60
2022-10-20T07:40:15.420Z,15.80
2022-10-20T07:41:15.338Z,15.40
2022-10-20T07:42:15.320Z,12.10
2022-10-20T07:43:15.345Z,17.50
2022-10-20T07:44:15.311Z,17.40
2022-10-20T07:45:15.301Z,13.90
2022-10-20T07:46:15.306Z,18.80
2022-10-20T07:47:15.265Z,19.20
2022-10-20T07:48:15.253Z,20.80
2022-10-20T07:50:16.258Z,23.50
2022-10-20T07:52:15.214Z,15.00
2022-10-20T07:53:15.197Z,17.50
2022-10-20T07:54:15.193Z,17.40
2022-10-20T07:55:36.576Z,16.00
2022-10-20T07:56:16.162Z,17.60
2022-10-20T07:57:15.138Z,20.60
2022-10-20T07:58:15.137Z,17.10
2022-10-20T07:59:15.140Z,17.80
2022-10-20T08:00:15.127Z,15.30
2022-10-20T08:01:15.175Z,12.30
2022-10-20T08:02:15.102Z,16.60
2022-10-20T08:03:15.086Z,16.80
2022-10-20T08:04:15.047Z,15.50
2022-10-20T08:05:15.081Z,14.50
2022-10-20T08:06:15.089Z,14.80
2022-10-20T08:07:15.027Z,18.10
2022-10-20T08:08:15.008Z,15.00
2022-10-20T08:09:15.004Z,16.20
2022-10-20T08:10:15.020Z,16.50
2022-10-20T08:11:15.014Z,11.30
2022-10-20T08:12:14.956Z,17.70
2022-10-20T08:13:14.980Z,12.70
2022-10-20T08:14:14.939Z,15.30
2022-10-20T08:15:16.309Z,15.10
2022-10-20T08:16:16.809Z,15.80
2022-10-20T08:17:14.944Z,19.30
2022-10-20T08:18:14.904Z,19.00
2022-10-20T08:19:15.984Z,12.80
2022-10-20T08:20:15.221Z,13.60
2022-10-20T08:21:14.867Z,12.10
2022-10-20T08:22:14.884Z,15.00
2022-10-20T08:23:14.820Z,15.80
2022-10-20T08:24:14.843Z,14.40
2022-10-20T08:25:14.841Z,13.10
2022-10-20T08:26:14.791Z,11.70
2022-10-20T08:27:14.854Z,15.90
2022-10-20T08:28:14.793Z,13.30
2022-10-20T08:29:14.840Z,14.60
2022-10-20T08:30:29.654Z,11.10
2022-10-20T08:31:15.767Z,12.60
2022-10-20T08:32:14.722Z,15.90
2022-10-20T08:33:14.759Z,13.10
2022-10-20T08:34:14.719Z,13.70
2022-10-20T08:35:14.722Z,17.90
2022-10-20T08:36:14.731Z,13.70
2022-10-20T08:37:14.775Z,15.00
2022-10-20T08:38:14.665Z,15.00
2022-10-20T08:39:14.669Z,11.90
2022-10-20T08:40:14.677Z,19.20
2022-10-20T08:41:14.625Z,14.90
2022-10-20T08:42:14.633Z,14.70
2022-10-20T08:43:14.648Z,14.50
2022-10-20T08:44:14.595Z,13.90
2022-10-20T08:45:14.621Z,14.00
2022-10-20T08:46:14.645Z,13.40
2022-10-20T08:47:14.580Z,17.60
2022-10-20T08:48:14.621Z,12.90
2022-10-20T08:49:14.527Z,10.20
2022-10-20T08:50:14.540Z,12.60
2022-10-20T08:51:14.541Z,17.60
2022-10-20T08:52:14.540Z,13.70
2022-10-20T08:53:14.486Z,14.10
2022-10-20T08:54:14.496Z,20.80
2022-10-20T08:55:14.477Z,14.60
2022-10-20T08:56:14.552Z,14.50
2022-10-20T08:57:14.439Z,15.90
2022-10-20T08:58:14.419Z,13.50
2022-10-20T08:59:14.450Z,13.10
2022-10-20T09:00:14.434Z,14.20
2022-10-20T09:01:14.433Z,12.80
2022-10-20T09:02:14.444Z,9.40
2022-10-20T09:03:14.426Z,13.00
2022-10-20T09:04:14.370Z,11.10
2022-10-20T09:05:16.774Z,10.50
2022-10-20T09:06:14.356Z,12.00
2022-10-20T09:07:14.349Z,15.10
2022-10-20T09:08:14.345Z,11.40
2022-10-20T09:09:14.363Z,12.90
2022-10-20T09:10:14.305Z,10.70
2022-10-20T09:11:14.317Z,15.20
2022-10-20T09:12:14.283Z,17.60
2022-10-20T09:13:14.335Z,10.70
2022-10-20T09:14:14.283Z,12.20
2022-10-20T09:15:14.247Z,14.60
2022-10-20T09:16:22.130Z,12.50
2022-10-20T09:17:15.277Z,11.70
2022-10-20T09:18:14.239Z,11.60
2022-10-20T09:19:14.207Z,8.70
2022-10-20T09:20:14.189Z,11.60
2022-10-20T09:21:14.208Z,16.00
2022-10-20T09:22:14.199Z,15.70
2022-10-20T09:23:35.556Z,10.80
2022-10-20T09:24:15.156Z,9.70
2022-10-20T09:25:14.130Z,8.00
2022-10-20T09:26:24.851Z,8.00
2022-10-20T09:27:15.088Z,7.10
2022-10-20T09:28:14.102Z,9.70
2022-10-20T09:29:15.033Z,8.90
2022-10-20T09:30:14.116Z,10.50
2022-10-20T09:31:14.071Z,8.40
2022-10-20T09:32:44.564Z,8.00
2022-10-20T09:33:15.042Z,8.20
2022-10-20T09:34:14.018Z,9.20
2022-10-20T09:35:14.072Z,7.50
2022-10-20T09:36:13.993Z,6.80
2022-10-20T09:37:13.970Z,10.30
2022-10-20T09:38:13.975Z,10.70
2022-10-20T09:39:14.059Z,5.70
2022-10-20T09:40:13.973Z,10.70
2022-10-20T09:41:13.963Z,13.10
2022-10-20T09:42:13.927Z,7.90
2022-10-20T09:43:13.924Z,5.80
2022-10-20T09:44:13.934Z,8.50
2022-10-20T09:45:13.908Z,7.60
2022-10-20T09:46:13.906Z,7.60
2022-10-20T09:47:13.907Z,9.10
2022-10-20T09:48:13.845Z,3.20
2022-10-20T09:49:13.868Z,7.90
2022-10-20T09:50:13.868Z,8.70
2022-10-20T09:52:13.820Z,5.40
2022-10-20T09:53:13.800Z,5.60
2022-10-20T09:54:13.867Z,7.00
2022-10-20T09:55:13.767Z,4.20
2022-10-20T09:56:13.771Z,6.50
2022-10-20T09:57:13.809Z,5.90
2022-10-20T09:58:17.095Z,17.70
2022-10-20T09:59:13.748Z,19.00
2022-10-20T10:01:14.798Z,9.20
2022-10-20T10:02:13.721Z,6.50
2022-10-20T10:03:13.695Z,7.50
2022-10-20T10:04:13.690Z,7.20
2022-10-20T10:05:13.651Z,6.20
2022-10-20T10:06:13.664Z,7.00
2022-10-20T10:07:13.664Z,3.90
2022-10-20T10:08:13.671Z,4.40
2022-10-20T10:09:13.712Z,4.40
2022-10-20T10:10:13.604Z,9.50
2022-10-20T10:11:13.619Z,8.90
2022-10-20T10:12:13.617Z,4.10
2022-10-20T10:13:13.587Z,5.70
2022-10-20T10:14:13.598Z,4.20
2022-10-20T10:15:13.545Z,8.30
2022-10-20T10:16:13.565Z,6.10
2022-10-20T10:17:13.536Z,16.10
2022-10-20T10:18:13.515Z,9.30
2022-10-20T10:20:13.569Z,4.00
2022-10-20T10:21:13.490Z,2.10
2022-10-20T10:22:13.488Z,3.30
2022-10-20T10:23:13.469Z,3.50
2022-10-20T10:24:13.491Z,4.40
2022-10-20T10:25:13.439Z,5.50
2022-10-20T10:26:13.471Z,3.30
2022-10-20T10:27:13.480Z,7.00
2022-10-20T10:28:13.437Z,6.90
2022-10-20T10:29:13.392Z,5.50
2022-10-20T10:30:13.380Z,5.50
2022-10-20T10:31:13.371Z,6.30
2022-10-20T10:32:13.383Z,8.50
2022-10-20T10:33:13.392Z,10.40
2022-10-20T10:34:13.332Z,3.90
2022-10-20T10:35:13.346Z,7.20
2022-10-20T10:36:13.364Z,3.50
2022-10-20T10:37:13.383Z,3.30
2022-10-20T10:38:13.317Z,2.90
2022-10-20T10:39:13.285Z,3.60
2022-10-20T10:40:13.341Z,2.90
2022-10-20T10:41:13.278Z,4.40
2022-10-20T10:42:13.309Z,3.40
2022-10-20T10:43:13.256Z,3.70
2022-10-20T10:44:13.216Z,3.20
2022-10-20T10:45:13.250Z,3.40
2022-10-20T10:46:13.219Z,5.90
2022-10-20T10:47:13.232Z,3.60
2022-10-20T10:48:13.208Z,4.00
2022-10-20T10:49:13.159Z,4.40
2022-10-20T10:50:13.159Z,4.20
2022-10-20T10:51:13.172Z,2.30
2022-10-20T10:52:13.153Z,2.80
2022-10-20T10:53:13.174Z,3.80
2022-10-20T10:54:13.140Z,3.30
2022-10-20T10:55:21.331Z,2.30
2022-10-20T10:56:14.109Z,3.30
2022-10-20T10:57:13.081Z,4.00
2022-10-20T10:59:13.092Z,7.30
2022-10-20T11:00:13.116Z,10.40
2022-10-20T11:01:13.072Z,5.00
2022-10-20T11:02:13.038Z,3.30
2022-10-20T11:03:13.027Z,2.70
2022-10-20T11:04:13.060Z,2.60
2022-10-20T11:05:13.023Z,2.40
2022-10-20T11:06:12.989Z,2.80
2022-10-20T11:07:13.110Z,4.10
2022-10-20T11:08:13.007Z,3.30
2022-10-20T11:09:12.962Z,2.60
2022-10-20T11:10:13.055Z,3.00
2022-10-20T11:11:12.936Z,3.90
2022-10-20T11:12:12.962Z,9.50
2022-10-20T11:13:12.911Z,2.00
2022-10-20T11:14:12.939Z,5.40
2022-10-20T11:15:12.903Z,6.10
2022-10-20T11:16:12.939Z,8.70
2022-10-20T11:17:12.863Z,3.60
2022-10-20T11:18:12.861Z,4.30
2022-10-20T11:19:12.846Z,2.30
2022-10-20T11:20:12.876Z,2.80
2022-10-20T11:21:12.832Z,2.10
2022-10-20T11:22:14.330Z,2.60
2022-10-20T11:23:12.805Z,5.40
2022-10-20T11:24:12.802Z,6.00
2022-10-20T11:25:12.787Z,3.40
2022-10-20T11:26:12.773Z,3.90
2022-10-20T11:27:12.753Z,2.10
2022-10-20T11:28:12.735Z,3.70
2022-10-20T11:29:12.736Z,5.70
2022-10-20T11:30:12.788Z,8.10
2022-10-20T11:31:12.726Z,3.90
2022-10-20T11:32:12.707Z,5.40
2022-10-20T11:33:12.677Z,20.20
2022-10-20T11:34:12.668Z,12.90
2022-10-20T11:35:12.681Z,9.20
2022-10-20T11:36:12.687Z,5.70
2022-10-20T11:37:12.658Z,5.00
2022-10-20T11:38:12.651Z,4.50
2022-10-20T11:39:12.609Z,3.30
2022-10-20T11:40:12.645Z,4.90
2022-10-20T11:41:12.596Z,6.10
2022-10-20T11:42:12.634Z,5.30
2022-10-20T11:43:12.580Z,2.70
2022-10-20T11:44:12.560Z,5.10
2022-10-20T11:45:12.574Z,2.80
2022-10-20T11:46:12.543Z,3.00
2022-10-20T11:47:12.555Z,2.00
2022-10-20T11:48:12.516Z,3.30
2022-10-20T11:49:12.539Z,2.10
2022-10-20T11:50:12.498Z,2.60
2022-10-20T11:51:12.539Z,1.90
2022-10-20T11:52:12.498Z,2.70
2022-10-20T11:53:12.488Z,2.50
2022-10-20T11:54:12.470Z,4.00
2022-10-20T11:55:12.458Z,2.50
2022-10-20T11:56:12.434Z,4.40
2022-10-20T11:57:12.456Z,3.10
2022-10-20T11:58:12.427Z,3.80
2022-10-20T11:59:12.387Z,4.00
2022-10-20T12:00:12.518Z,3.40
2022-10-20T12:01:12.368Z,4.20
2022-10-20T12:02:12.404Z,2.90
2022-10-20T12:03:12.398Z,2.80
2022-10-20T12:04:12.338Z,2.50
2022-10-20T12:05:12.363Z,2.70
2022-10-20T12:06:12.312Z,2.20
2022-10-20T12:07:12.324Z,3.70
2022-10-20T12:08:28.841Z,4.40
2022-10-20T12:09:13.343Z,3.20
2022-10-20T12:10:12.288Z,2.20
2022-10-20T12:11:12.295Z,2.50
2022-10-20T12:12:12.368Z,2.10
2022-10-20T12:13:12.261Z,2.80
2022-10-20T12:14:12.268Z,3.00
2022-10-20T12:15:16.188Z,3.90
2022-10-20T12:16:13.264Z,4.50
2022-10-20T12:17:12.195Z,2.30
2022-10-20T12:18:12.209Z,2.90
2022-10-20T12:19:12.187Z,2.10
2022-10-20T12:20:12.189Z,5.00
2022-10-20T12:21:12.233Z,3.80
2022-10-20T12:22:12.147Z,3.10
2022-10-20T12:23:12.167Z,3.50
2022-10-20T12:24:12.122Z,1.60
2022-10-20T12:25:12.121Z,2.50
2022-10-20T12:26:12.143Z,3.40
2022-10-20T12:27:12.131Z,5.10
2022-10-20T12:28:12.072Z,3.00
2022-10-20T12:29:12.095Z,4.50
2022-10-20T12:30:12.092Z,2.20
2022-10-20T12:31:12.030Z,2.60
2022-10-20T12:32:12.062Z,4.50
2022-10-20T12:33:12.035Z,5.60
2022-10-20T12:34:12.021Z,2.20
2022-10-20T12:35:12.025Z,3.50
2022-10-20T12:36:11.983Z,2.80
2022-10-20T12:37:11.985Z,2.80
2022-10-20T12:38:12.014Z,2.60
2022-10-20T12:39:11.944Z,2.10
2022-10-20T12:40:11.969Z,2.60
2022-10-20T12:41:11.963Z,2.70
2022-10-20T12:42:11.939Z,3.10
2022-10-20T12:43:11.939Z,2.20
2022-10-20T12:44:11.886Z,3.90
2022-10-20T12:45:11.890Z,2.60
2022-10-20T12:46:11.975Z,2.60
2022-10-20T12:47:11.910Z,3.10
2022-10-20T12:48:11.847Z,3.90
2022-10-20T12:49:12.159Z,2.80
2022-10-20T12:50:11.827Z,2.00
2022-10-20T12:51:11.829Z,2.90
2022-10-20T12:52:11.817Z,3.50
2022-10-20T12:53:11.850Z,2.80
2022-10-20T12:54:11.792Z,2.50
2022-10-20T12:55:11.782Z,4.30
2022-10-20T12:56:11.760Z,1.50
2022-10-20T12:57:11.761Z,4.00
2022-10-20T12:58:11.757Z,2.60
2022-10-20T12:59:11.761Z,3.10
2022-10-20T13:00:11.735Z,2.60
2022-10-20T13:01:11.782Z,2.50
2022-10-20T13:02:11.682Z,1.90
2022-10-20T13:03:17.125Z,2.80
2022-10-20T13:04:12.698Z,2.20
2022-10-20T13:05:11.677Z,1.90
2022-10-20T13:06:11.657Z,1.90